LETO/TOJ METAR and TAF weather

Enter ICAO airport designator
Station Type Date Time Source
LETO METAR 2018/12/13 06:00 UTC NOAA

LETO 130600Z 18003KT 9999 SCT014 BKN018 08/08 Q1010 NOSIG


Station Type Date Time Source
LETO Decoded METAR 2018/12/13 06:00 UTC NOAA

Madrid / Torrejon, Spain (LETO) 40-29N 003-27W 611M
Dec 13, 2018 - 01:00 AM EST / 2018.12.13 0600 UTC
Wind: from the S (180 degrees) at 3 MPH (3 KT):0
Visibility: greater than 7 mile(s):0
Sky conditions: mostly cloudy
Temperature: 46 F (8 C)
Dew Point: 46 F (8 C)
Relative Humidity: 100%
Pressure (altimeter): 29.83 in. Hg (1010 hPa)
ob: LETO 130600Z 18003KT 9999 SCT014 BKN018 08/08 Q1010 NOSIG
cycle: 6

Station Type Date Time Source
LETO TAF 2018/12/13 06:27 UTC NOAA

TAF LETO 130500Z 1306/1406 20008KT 6000 SCT010 BKN016 BKN020 TX09/1315Z TNM00/1406Z PROB30
TEMPO 1306/1309 24015G25KT
BECMG 1309/1310 29015KT
TEMPO 1309/1318 30017G34KT
TEMPO 1306/1312 4000 RA BKN005 BKN012
BECMG 1312/1314 9999 NSW SCT025 PROB30
TEMPO 1312/1317 FEW025CB


Example: see airport list